sensor_id;sensor_type;location;lat;lon;timestamp;P1;durP1;ratioP1;P2;durP2;ratioP2
18190;SDS011;47004;51.366;12.348;2023-01-06T00:01:09;7.27;;;4.10;;
18190;SDS011;47004;51.366;12.348;2023-01-06T00:03:12;7.67;;;4.23;;
18190;SDS011;47004;51.366;12.348;2023-01-06T00:05:14;7.37;;;3.97;;
18190;SDS011;47004;51.366;12.348;2023-01-06T00:07:16;7.83;;;4.90;;
18190;SDS011;47004;51.366;12.348;2023-01-06T00:09:18;9.60;;;4.80;;
18190;SDS011;47004;51.366;12.348;2023-01-06T00:11:20;9.93;;;5.67;;
18190;SDS011;47004;51.366;12.348;2023-01-06T00:13:23;9.13;;;5.27;;
18190;SDS011;47004;51.366;12.348;2023-01-06T00:15:25;10.43;;;5.50;;
18190;SDS011;47004;51.366;12.348;2023-01-06T00:17:29;10.43;;;5.87;;
18190;SDS011;47004;51.366;12.348;2023-01-06T00:19:31;10.57;;;5.17;;
18190;SDS011;47004;51.366;12.348;2023-01-06T00:21:33;10.27;;;5.57;;
18190;SDS011;47004;51.366;12.348;2023-01-06T00:23:35;11.67;;;6.00;;
18190;SDS011;47004;51.366;12.348;2023-01-06T00:25:37;9.23;;;5.03;;
18190;SDS011;47004;51.366;12.348;2023-01-06T00:27:48;16.27;;;6.67;;
18190;SDS011;47004;51.366;12.348;2023-01-06T00:29:50;8.33;;;4.87;;
18190;SDS011;47004;51.366;12.348;2023-01-06T00:31:52;10.80;;;5.90;;
18190;SDS011;47004;51.366;12.348;2023-01-06T00:33:56;10.83;;;5.37;;
18190;SDS011;47004;51.366;12.348;2023-01-06T00:35:58;12.33;;;5.53;;
18190;SDS011;47004;51.366;12.348;2023-01-06T00:38:00;14.07;;;6.40;;
18190;SDS011;47004;51.366;12.348;2023-01-06T00:40:02;14.60;;;6.10;;
18190;SDS011;47004;51.366;12.348;2023-01-06T00:42:04;10.63;;;6.03;;
18190;SDS011;47004;51.366;12.348;2023-01-06T00:44:06;12.60;;;6.50;;
18190;SDS011;47004;51.366;12.348;2023-01-06T00:46:08;17.43;;;6.80;;
18190;SDS011;47004;51.366;12.348;2023-01-06T00:48:10;10.80;;;5.53;;
18190;SDS011;47004;51.366;12.348;2023-01-06T00:50:13;11.90;;;5.93;;
18190;SDS011;47004;51.366;12.348;2023-01-06T00:52:15;12.43;;;5.60;;
18190;SDS011;47004;51.366;12.348;2023-01-06T00:54:17;10.93;;;5.93;;
18190;SDS011;47004;51.366;12.348;2023-01-06T00:56:19;11.23;;;5.90;;
18190;SDS011;47004;51.366;12.348;2023-01-06T00:58:21;13.93;;;6.37;;
18190;SDS011;47004;51.366;12.348;2023-01-06T01:00:23;14.90;;;6.47;;
18190;SDS011;47004;51.366;12.348;2023-01-06T01:02:25;15.13;;;6.63;;
18190;SDS011;47004;51.366;12.348;2023-01-06T01:04:27;16.37;;;6.93;;
18190;SDS011;47004;51.366;12.348;2023-01-06T01:06:31;12.33;;;6.30;;
18190;SDS011;47004;51.366;12.348;2023-01-06T01:08:33;16.73;;;6.70;;
18190;SDS011;47004;51.366;12.348;2023-01-06T01:10:35;13.20;;;6.57;;
18190;SDS011;47004;51.366;12.348;2023-01-06T01:12:37;11.80;;;6.20;;
18190;SDS011;47004;51.366;12.348;2023-01-06T01:14:40;19.20;;;7.07;;
18190;SDS011;47004;51.366;12.348;2023-01-06T01:16:43;12.83;;;6.17;;
18190;SDS011;47004;51.366;12.348;2023-01-06T01:18:45;13.10;;;6.17;;
18190;SDS011;47004;51.366;12.348;2023-01-06T01:20:47;16.93;;;7.10;;
18190;SDS011;47004;51.366;12.348;2023-01-06T01:22:50;14.30;;;7.03;;
18190;SDS011;47004;51.366;12.348;2023-01-06T01:24:52;15.77;;;6.57;;
18190;SDS011;47004;51.366;12.348;2023-01-06T01:26:54;12.93;;;6.50;;
18190;SDS011;47004;51.366;12.348;2023-01-06T01:28:56;13.30;;;6.27;;
18190;SDS011;47004;51.366;12.348;2023-01-06T01:30:58;13.40;;;6.33;;
18190;SDS011;47004;51.366;12.348;2023-01-06T01:33:01;18.43;;;7.70;;
18190;SDS011;47004;51.366;12.348;2023-01-06T01:35:03;17.77;;;7.80;;
18190;SDS011;47004;51.366;12.348;2023-01-06T01:37:05;20.70;;;8.17;;
18190;SDS011;47004;51.366;12.348;2023-01-06T01:39:08;14.73;;;6.83;;
18190;SDS011;47004;51.366;12.348;2023-01-06T01:41:13;17.20;;;6.70;;
18190;SDS011;47004;51.366;12.348;2023-01-06T01:43:16;19.00;;;7.50;;
18190;SDS011;47004;51.366;12.348;2023-01-06T01:45:20;20.63;;;7.60;;
18190;SDS011;47004;51.366;12.348;2023-01-06T01:47:26;16.77;;;7.97;;
18190;SDS011;47004;51.366;12.348;2023-01-06T01:49:31;14.97;;;6.70;;
18190;SDS011;47004;51.366;12.348;2023-01-06T01:51:38;19.23;;;8.03;;
18190;SDS011;47004;51.366;12.348;2023-01-06T01:53:45;15.97;;;7.07;;
18190;SDS011;47004;51.366;12.348;2023-01-06T01:55:51;16.67;;;7.43;;
18190;SDS011;47004;51.366;12.348;2023-01-06T01:57:56;19.63;;;8.37;;
18190;SDS011;47004;51.366;12.348;2023-01-06T02:00:05;24.00;;;9.40;;
18190;SDS011;47004;51.366;12.348;2023-01-06T02:02:09;23.43;;;9.17;;
18190;SDS011;47004;51.366;12.348;2023-01-06T02:04:11;26.00;;;8.73;;
18190;SDS011;47004;51.366;12.348;2023-01-06T02:06:15;25.80;;;9.10;;
18190;SDS011;47004;51.366;12.348;2023-01-06T02:08:21;17.53;;;8.03;;
18190;SDS011;47004;51.366;12.348;2023-01-06T02:10:26;27.93;;;8.90;;
18190;SDS011;47004;51.366;12.348;2023-01-06T02:12:30;25.53;;;8.50;;
18190;SDS011;47004;51.366;12.348;2023-01-06T02:14:32;29.17;;;8.87;;
18190;SDS011;47004;51.366;12.348;2023-01-06T02:16:36;22.87;;;8.73;;
18190;SDS011;47004;51.366;12.348;2023-01-06T02:18:49;20.17;;;7.47;;
18190;SDS011;47004;51.366;12.348;2023-01-06T02:28:40;26.13;;;9.17;;
18190;SDS011;47004;51.366;12.348;2023-01-06T02:33:44;21.47;;;8.33;;
18190;SDS011;47004;51.366;12.348;2023-01-06T02:36:00;23.40;;;8.37;;
18190;SDS011;47004;51.366;12.348;2023-01-06T02:38:13;19.17;;;7.63;;
18190;SDS011;47004;51.366;12.348;2023-01-06T02:40:26;26.43;;;8.77;;
18190;SDS011;47004;51.366;12.348;2023-01-06T02:42:39;23.10;;;7.83;;
18190;SDS011;47004;51.366;12.348;2023-01-06T02:44:47;32.87;;;9.67;;
18190;SDS011;47004;51.366;12.348;2023-01-06T02:49:17;26.00;;;9.60;;
18190;SDS011;47004;51.366;12.348;2023-01-06T02:51:28;23.23;;;8.53;;
18190;SDS011;47004;51.366;12.348;2023-01-06T02:53:38;17.33;;;7.57;;
18190;SDS011;47004;51.366;12.348;2023-01-06T02:55:43;22.63;;;8.30;;
18190;SDS011;47004;51.366;12.348;2023-01-06T02:57:49;19.10;;;7.20;;
18190;SDS011;47004;51.366;12.348;2023-01-06T02:59:55;20.93;;;8.10;;
18190;SDS011;47004;51.366;12.348;2023-01-06T03:02:03;26.73;;;7.80;;
18190;SDS011;47004;51.366;12.348;2023-01-06T03:04:07;21.60;;;7.80;;
18190;SDS011;47004;51.366;12.348;2023-01-06T03:06:15;28.67;;;8.40;;
18190;SDS011;47004;51.366;12.348;2023-01-06T03:08:23;17.30;;;6.77;;
18190;SDS011;47004;51.366;12.348;2023-01-06T03:10:27;23.57;;;7.13;;
18190;SDS011;47004;51.366;12.348;2023-01-06T03:12:31;18.87;;;7.33;;
18190;SDS011;47004;51.366;12.348;2023-01-06T03:14:38;18.50;;;6.93;;
18190;SDS011;47004;51.366;12.348;2023-01-06T03:16:43;17.10;;;6.80;;
18190;SDS011;47004;51.366;12.348;2023-01-06T03:18:45;23.27;;;7.33;;
18190;SDS011;47004;51.366;12.348;2023-01-06T03:20:50;18.77;;;6.53;;
18190;SDS011;47004;51.366;12.348;2023-01-06T03:22:58;19.70;;;6.43;;
18190;SDS011;47004;51.366;12.348;2023-01-06T03:25:00;18.50;;;6.17;;
18190;SDS011;47004;51.366;12.348;2023-01-06T03:27:02;19.10;;;6.13;;
18190;SDS011;47004;51.366;12.348;2023-01-06T03:29:05;20.77;;;7.00;;
18190;SDS011;47004;51.366;12.348;2023-01-06T03:31:12;19.23;;;6.67;;
18190;SDS011;47004;51.366;12.348;2023-01-06T03:33:20;18.60;;;6.83;;
18190;SDS011;47004;51.366;12.348;2023-01-06T03:35:30;15.73;;;6.37;;
18190;SDS011;47004;51.366;12.348;2023-01-06T03:37:48;19.37;;;6.27;;
18190;SDS011;47004;51.366;12.348;2023-01-06T03:39:57;15.10;;;5.50;;
18190;SDS011;47004;51.366;12.348;2023-01-06T03:42:11;23.20;;;6.27;;
18190;SDS011;47004;51.366;12.348;2023-01-06T03:44:41;30.93;;;6.57;;
18190;SDS011;47004;51.366;12.348;2023-01-06T03:46:49;14.00;;;6.07;;
18190;SDS011;47004;51.366;12.348;2023-01-06T03:49:00;15.90;;;5.80;;
18190;SDS011;47004;51.366;12.348;2023-01-06T03:51:08;13.83;;;5.10;;
18190;SDS011;47004;51.366;12.348;2023-01-06T03:53:22;15.97;;;5.23;;
18190;SDS011;47004;51.366;12.348;2023-01-06T03:55:30;18.90;;;6.00;;
18190;SDS011;47004;51.366;12.348;2023-01-06T03:57:36;18.20;;;5.23;;
18190;SDS011;47004;51.366;12.348;2023-01-06T03:59:44;14.87;;;5.63;;
18190;SDS011;47004;51.366;12.348;2023-01-06T04:01:49;18.27;;;5.23;;
18190;SDS011;47004;51.366;12.348;2023-01-06T04:03:51;17.30;;;5.27;;
18190;SDS011;47004;51.366;12.348;2023-01-06T04:05:54;20.33;;;5.63;;
18190;SDS011;47004;51.366;12.348;2023-01-06T04:07:56;19.67;;;5.80;;
18190;SDS011;47004;51.366;12.348;2023-01-06T04:09:58;18.43;;;5.43;;
18190;SDS011;47004;51.366;12.348;2023-01-06T04:12:02;22.17;;;5.10;;
18190;SDS011;47004;51.366;12.348;2023-01-06T04:14:21;18.00;;;5.23;;
18190;SDS011;47004;51.366;12.348;2023-01-06T04:16:23;17.47;;;5.00;;
18190;SDS011;47004;51.366;12.348;2023-01-06T04:18:25;14.83;;;5.53;;
18190;SDS011;47004;51.366;12.348;2023-01-06T04:20:28;19.47;;;5.80;;
18190;SDS011;47004;51.366;12.348;2023-01-06T04:22:31;15.10;;;4.87;;
18190;SDS011;47004;51.366;12.348;2023-01-06T04:24:33;15.17;;;5.07;;
18190;SDS011;47004;51.366;12.348;2023-01-06T04:26:35;18.03;;;5.17;;
18190;SDS011;47004;51.366;12.348;2023-01-06T04:28:39;15.87;;;4.50;;
18190;SDS011;47004;51.366;12.348;2023-01-06T04:30:41;17.53;;;5.33;;
18190;SDS011;47004;51.366;12.348;2023-01-06T04:32:42;14.00;;;4.70;;
18190;SDS011;47004;51.366;12.348;2023-01-06T04:34:44;19.30;;;4.93;;
18190;SDS011;47004;51.366;12.348;2023-01-06T04:36:46;13.23;;;4.20;;
18190;SDS011;47004;51.366;12.348;2023-01-06T04:38:48;19.47;;;4.87;;
18190;SDS011;47004;51.366;12.348;2023-01-06T04:40:50;15.17;;;4.60;;
18190;SDS011;47004;51.366;12.348;2023-01-06T04:42:52;17.63;;;5.03;;
18190;SDS011;47004;51.366;12.348;2023-01-06T04:45:08;14.20;;;4.77;;
18190;SDS011;47004;51.366;12.348;2023-01-06T04:47:10;19.23;;;4.43;;
18190;SDS011;47004;51.366;12.348;2023-01-06T04:49:12;13.50;;;4.43;;
18190;SDS011;47004;51.366;12.348;2023-01-06T04:51:14;18.97;;;4.70;;
18190;SDS011;47004;51.366;12.348;2023-01-06T04:53:18;16.50;;;4.10;;
18190;SDS011;47004;51.366;12.348;2023-01-06T04:55:20;21.20;;;4.50;;
18190;SDS011;47004;51.366;12.348;2023-01-06T04:57:23;17.87;;;4.63;;
18190;SDS011;47004;51.366;12.348;2023-01-06T04:59:25;13.97;;;4.33;;
18190;SDS011;47004;51.366;12.348;2023-01-06T05:01:28;13.90;;;4.40;;
18190;SDS011;47004;51.366;12.348;2023-01-06T05:03:30;17.20;;;4.60;;
18190;SDS011;47004;51.366;12.348;2023-01-06T05:05:34;16.03;;;4.37;;
18190;SDS011;47004;51.366;12.348;2023-01-06T05:07:35;13.03;;;3.80;;
18190;SDS011;47004;51.366;12.348;2023-01-06T05:09:38;16.57;;;4.30;;
18190;SDS011;47004;51.366;12.348;2023-01-06T05:11:40;14.97;;;4.10;;
18190;SDS011;47004;51.366;12.348;2023-01-06T05:13:42;16.33;;;4.27;;
18190;SDS011;47004;51.366;12.348;2023-01-06T05:15:44;19.77;;;5.20;;
18190;SDS011;47004;51.366;12.348;2023-01-06T05:17:49;13.50;;;4.77;;
18190;SDS011;47004;51.366;12.348;2023-01-06T05:19:50;25.13;;;5.10;;
18190;SDS011;47004;51.366;12.348;2023-01-06T05:21:55;18.07;;;4.70;;
18190;SDS011;47004;51.366;12.348;2023-01-06T05:23:57;15.43;;;4.47;;
18190;SDS011;47004;51.366;12.348;2023-01-06T05:25:59;9.27;;;3.90;;
18190;SDS011;47004;51.366;12.348;2023-01-06T05:28:01;17.23;;;5.03;;
18190;SDS011;47004;51.366;12.348;2023-01-06T05:30:08;11.67;;;4.30;;
18190;SDS011;47004;51.366;12.348;2023-01-06T05:32:10;17.03;;;4.60;;
18190;SDS011;47004;51.366;12.348;2023-01-06T05:34:14;12.50;;;4.03;;
18190;SDS011;47004;51.366;12.348;2023-01-06T05:36:18;18.30;;;4.17;;
18190;SDS011;47004;51.366;12.348;2023-01-06T05:38:20;20.33;;;4.40;;
18190;SDS011;47004;51.366;12.348;2023-01-06T05:40:22;12.43;;;4.40;;
18190;SDS011;47004;51.366;12.348;2023-01-06T05:42:24;11.47;;;4.37;;
18190;SDS011;47004;51.366;12.348;2023-01-06T05:44:29;12.63;;;4.23;;
18190;SDS011;47004;51.366;12.348;2023-01-06T05:46:32;13.63;;;4.67;;
18190;SDS011;47004;51.366;12.348;2023-01-06T05:48:34;11.97;;;4.03;;
18190;SDS011;47004;51.366;12.348;2023-01-06T05:50:38;12.30;;;3.97;;
18190;SDS011;47004;51.366;12.348;2023-01-06T05:52:40;13.83;;;4.10;;
18190;SDS011;47004;51.366;12.348;2023-01-06T05:54:42;14.50;;;4.13;;
18190;SDS011;47004;51.366;12.348;2023-01-06T05:56:44;14.50;;;5.23;;
18190;SDS011;47004;51.366;12.348;2023-01-06T05:58:46;14.63;;;5.00;;
18190;SDS011;47004;51.366;12.348;2023-01-06T06:00:50;14.37;;;4.03;;
18190;SDS011;47004;51.366;12.348;2023-01-06T06:02:54;10.30;;;3.97;;
18190;SDS011;47004;51.366;12.348;2023-01-06T06:04:56;13.70;;;4.10;;
18190;SDS011;47004;51.366;12.348;2023-01-06T06:06:59;15.17;;;4.37;;
18190;SDS011;47004;51.366;12.348;2023-01-06T06:09:03;9.07;;;4.07;;
18190;SDS011;47004;51.366;12.348;2023-01-06T06:11:06;9.20;;;4.10;;
18190;SDS011;47004;51.366;12.348;2023-01-06T06:13:09;11.17;;;4.20;;
18190;SDS011;47004;51.366;12.348;2023-01-06T06:15:11;8.00;;;4.00;;
18190;SDS011;47004;51.366;12.348;2023-01-06T06:17:13;14.13;;;5.43;;
18190;SDS011;47004;51.366;12.348;2023-01-06T06:19:15;9.43;;;3.70;;
18190;SDS011;47004;51.366;12.348;2023-01-06T06:21:18;9.03;;;3.90;;
18190;SDS011;47004;51.366;12.348;2023-01-06T06:23:26;10.83;;;3.87;;
18190;SDS011;47004;51.366;12.348;2023-01-06T06:25:28;11.97;;;4.40;;
18190;SDS011;47004;51.366;12.348;2023-01-06T06:27:30;11.07;;;4.53;;
18190;SDS011;47004;51.366;12.348;2023-01-06T06:29:32;10.53;;;4.20;;
18190;SDS011;47004;51.366;12.348;2023-01-06T06:31:34;8.03;;;3.53;;
18190;SDS011;47004;51.366;12.348;2023-01-06T06:33:36;7.90;;;4.03;;
18190;SDS011;47004;51.366;12.348;2023-01-06T06:35:38;11.80;;;4.50;;
18190;SDS011;47004;51.366;12.348;2023-01-06T06:37:40;8.40;;;4.13;;
18190;SDS011;47004;51.366;12.348;2023-01-06T06:39:43;9.07;;;3.83;;
18190;SDS011;47004;51.366;12.348;2023-01-06T06:41:45;14.53;;;3.73;;
18190;SDS011;47004;51.366;12.348;2023-01-06T06:43:48;8.97;;;3.40;;
18190;SDS011;47004;51.366;12.348;2023-01-06T06:45:50;17.87;;;3.90;;
18190;SDS011;47004;51.366;12.348;2023-01-06T06:47:52;9.40;;;3.90;;
18190;SDS011;47004;51.366;12.348;2023-01-06T06:49:54;7.70;;;3.50;;
18190;SDS011;47004;51.366;12.348;2023-01-06T06:51:56;11.87;;;3.80;;
18190;SDS011;47004;51.366;12.348;2023-01-06T06:53:58;7.97;;;3.63;;
18190;SDS011;47004;51.366;12.348;2023-01-06T06:56:02;7.60;;;3.17;;
18190;SDS011;47004;51.366;12.348;2023-01-06T06:58:05;8.77;;;3.70;;
18190;SDS011;47004;51.366;12.348;2023-01-06T07:00:08;10.73;;;4.00;;
18190;SDS011;47004;51.366;12.348;2023-01-06T07:02:11;7.57;;;3.47;;
18190;SDS011;47004;51.366;12.348;2023-01-06T07:04:13;7.50;;;3.87;;
18190;SDS011;47004;51.366;12.348;2023-01-06T07:06:16;10.67;;;3.90;;
18190;SDS011;47004;51.366;12.348;2023-01-06T07:08:20;8.60;;;4.10;;
18190;SDS011;47004;51.366;12.348;2023-01-06T07:10:22;8.13;;;4.03;;
18190;SDS011;47004;51.366;12.348;2023-01-06T07:12:25;9.93;;;3.97;;
18190;SDS011;47004;51.366;12.348;2023-01-06T07:14:27;11.67;;;3.93;;
18190;SDS011;47004;51.366;12.348;2023-01-06T07:16:29;8.17;;;4.10;;
18190;SDS011;47004;51.366;12.348;2023-01-06T07:18:31;9.20;;;3.70;;
18190;SDS011;47004;51.366;12.348;2023-01-06T07:20:34;8.57;;;3.60;;
18190;SDS011;47004;51.366;12.348;2023-01-06T07:22:37;8.87;;;4.07;;
18190;SDS011;47004;51.366;12.348;2023-01-06T07:24:40;7.70;;;4.07;;
18190;SDS011;47004;51.366;12.348;2023-01-06T07:26:42;8.70;;;3.53;;
18190;SDS011;47004;51.366;12.348;2023-01-06T07:28:45;6.77;;;3.83;;
18190;SDS011;47004;51.366;12.348;2023-01-06T07:30:47;8.40;;;3.93;;
18190;SDS011;47004;51.366;12.348;2023-01-06T07:32:49;6.47;;;3.77;;
18190;SDS011;47004;51.366;12.348;2023-01-06T07:34:51;14.23;;;5.17;;
18190;SDS011;47004;51.366;12.348;2023-01-06T07:36:56;11.47;;;5.20;;
18190;SDS011;47004;51.366;12.348;2023-01-06T07:38:57;12.20;;;6.40;;
18190;SDS011;47004;51.366;12.348;2023-01-06T07:41:00;11.03;;;4.93;;
18190;SDS011;47004;51.366;12.348;2023-01-06T07:43:02;10.77;;;4.57;;
18190;SDS011;47004;51.366;12.348;2023-01-06T07:45:07;9.10;;;4.40;;
18190;SDS011;47004;51.366;12.348;2023-01-06T07:47:10;8.70;;;4.13;;
18190;SDS011;47004;51.366;12.348;2023-01-06T07:49:12;10.33;;;4.33;;
18190;SDS011;47004;51.366;12.348;2023-01-06T07:51:13;9.67;;;4.23;;
18190;SDS011;47004;51.366;12.348;2023-01-06T07:53:16;7.50;;;4.30;;
18190;SDS011;47004;51.366;12.348;2023-01-06T07:55:18;9.13;;;4.90;;
18190;SDS011;47004;51.366;12.348;2023-01-06T07:57:19;13.53;;;6.03;;
18190;SDS011;47004;51.366;12.348;2023-01-06T07:59:24;12.20;;;5.47;;
18190;SDS011;47004;51.366;12.348;2023-01-06T08:01:28;9.77;;;4.43;;
18190;SDS011;47004;51.366;12.348;2023-01-06T08:03:30;8.13;;;3.73;;
18190;SDS011;47004;51.366;12.348;2023-01-06T08:05:32;9.63;;;4.10;;
18190;SDS011;47004;51.366;12.348;2023-01-06T08:07:37;7.90;;;3.97;;
18190;SDS011;47004;51.366;12.348;2023-01-06T08:09:38;7.37;;;3.27;;
18190;SDS011;47004;51.366;12.348;2023-01-06T08:11:40;6.10;;;3.43;;
18190;SDS011;47004;51.366;12.348;2023-01-06T08:13:42;4.67;;;3.03;;
18190;SDS011;47004;51.366;12.348;2023-01-06T08:15:44;9.43;;;3.30;;
18190;SDS011;47004;51.366;12.348;2023-01-06T08:17:52;5.40;;;2.50;;
18190;SDS011;47004;51.366;12.348;2023-01-06T08:19:54;4.93;;;2.97;;
18190;SDS011;47004;51.366;12.348;2023-01-06T08:21:56;5.63;;;3.13;;
18190;SDS011;47004;51.366;12.348;2023-01-06T08:23:58;4.37;;;3.07;;
18190;SDS011;47004;51.366;12.348;2023-01-06T08:26:00;4.93;;;2.90;;
18190;SDS011;47004;51.366;12.348;2023-01-06T08:28:03;9.00;;;4.23;;
18190;SDS011;47004;51.366;12.348;2023-01-06T08:30:05;12.07;;;5.83;;
18190;SDS011;47004;51.366;12.348;2023-01-06T08:32:08;5.70;;;3.20;;
18190;SDS011;47004;51.366;12.348;2023-01-06T08:34:11;3.73;;;2.30;;
18190;SDS011;47004;51.366;12.348;2023-01-06T08:36:16;6.50;;;2.60;;
18190;SDS011;47004;51.366;12.348;2023-01-06T08:38:19;3.77;;;2.03;;
18190;SDS011;47004;51.366;12.348;2023-01-06T08:40:21;3.27;;;2.27;;
18190;SDS011;47004;51.366;12.348;2023-01-06T08:42:22;6.53;;;2.10;;
18190;SDS011;47004;51.366;12.348;2023-01-06T08:44:24;2.60;;;2.00;;
18190;SDS011;47004;51.366;12.348;2023-01-06T08:46:26;3.07;;;1.70;;
18190;SDS011;47004;51.366;12.348;2023-01-06T08:48:29;3.33;;;1.83;;
18190;SDS011;47004;51.366;12.348;2023-01-06T08:50:32;3.00;;;1.53;;
18190;SDS011;47004;51.366;12.348;2023-01-06T08:52:34;2.17;;;1.47;;
18190;SDS011;47004;51.366;12.348;2023-01-06T08:54:36;4.90;;;1.90;;
18190;SDS011;47004;51.366;12.348;2023-01-06T08:56:39;3.77;;;1.70;;
18190;SDS011;47004;51.366;12.348;2023-01-06T08:58:43;2.87;;;1.63;;
18190;SDS011;47004;51.366;12.348;2023-01-06T09:00:50;2.30;;;1.57;;
18190;SDS011;47004;51.366;12.348;2023-01-06T09:02:52;2.60;;;1.60;;
18190;SDS011;47004;51.366;12.348;2023-01-06T09:04:54;2.87;;;1.60;;
18190;SDS011;47004;51.366;12.348;2023-01-06T09:06:57;2.97;;;1.60;;
18190;SDS011;47004;51.366;12.348;2023-01-06T09:08:59;2.27;;;1.40;;
18190;SDS011;47004;51.366;12.348;2023-01-06T09:11:03;2.93;;;1.50;;
18190;SDS011;47004;51.366;12.348;2023-01-06T09:13:06;3.10;;;1.40;;
18190;SDS011;47004;51.366;12.348;2023-01-06T09:15:08;2.63;;;1.40;;
18190;SDS011;47004;51.366;12.348;2023-01-06T09:17:10;2.73;;;1.60;;
18190;SDS011;47004;51.366;12.348;2023-01-06T09:19:12;2.30;;;1.33;;
18190;SDS011;47004;51.366;12.348;2023-01-06T09:21:16;5.03;;;1.67;;
18190;SDS011;47004;51.366;12.348;2023-01-06T09:23:20;2.37;;;1.40;;
18190;SDS011;47004;51.366;12.348;2023-01-06T09:25:22;2.87;;;1.53;;
18190;SDS011;47004;51.366;12.348;2023-01-06T09:27:24;1.60;;;1.40;;
18190;SDS011;47004;51.366;12.348;2023-01-06T09:29:26;2.90;;;1.20;;
18190;SDS011;47004;51.366;12.348;2023-01-06T09:31:28;1.63;;;1.20;;
18190;SDS011;47004;51.366;12.348;2023-01-06T09:33:30;2.20;;;1.47;;
18190;SDS011;47004;51.366;12.348;2023-01-06T09:35:32;2.60;;;1.30;;
18190;SDS011;47004;51.366;12.348;2023-01-06T09:37:34;1.10;;;1.00;;
18190;SDS011;47004;51.366;12.348;2023-01-06T09:39:37;1.43;;;1.13;;
18190;SDS011;47004;51.366;12.348;2023-01-06T09:41:42;1.93;;;1.17;;
18190;SDS011;47004;51.366;12.348;2023-01-06T09:44:00;1.27;;;1.10;;
18190;SDS011;47004;51.366;12.348;2023-01-06T09:46:08;1.63;;;1.00;;
18190;SDS011;47004;51.366;12.348;2023-01-06T09:48:14;2.30;;;1.00;;
18190;SDS011;47004;51.366;12.348;2023-01-06T09:50:20;1.90;;;1.00;;
18190;SDS011;47004;51.366;12.348;2023-01-06T09:52:31;3.20;;;1.93;;
18190;SDS011;47004;51.366;12.348;2023-01-06T09:54:35;1.43;;;0.93;;
18190;SDS011;47004;51.366;12.348;2023-01-06T09:56:46;2.43;;;1.27;;
18190;SDS011;47004;51.366;12.348;2023-01-06T09:58:53;3.47;;;1.40;;
18190;SDS011;47004;51.366;12.348;2023-01-06T10:01:05;2.57;;;1.27;;
18190;SDS011;47004;51.366;12.348;2023-01-06T10:03:12;2.97;;;1.33;;
18190;SDS011;47004;51.366;12.348;2023-01-06T10:05:17;2.07;;;1.10;;
18190;SDS011;47004;51.366;12.348;2023-01-06T10:07:22;2.47;;;1.17;;
18190;SDS011;47004;51.366;12.348;2023-01-06T10:09:29;2.50;;;1.17;;
18190;SDS011;47004;51.366;12.348;2023-01-06T10:11:43;2.00;;;1.10;;
18190;SDS011;47004;51.366;12.348;2023-01-06T10:14:00;4.70;;;1.73;;
18190;SDS011;47004;51.366;12.348;2023-01-06T10:16:14;1.37;;;1.10;;
18190;SDS011;47004;51.366;12.348;2023-01-06T10:18:27;2.23;;;1.50;;
18190;SDS011;47004;51.366;12.348;2023-01-06T10:23:03;2.13;;;1.20;;
18190;SDS011;47004;51.366;12.348;2023-01-06T10:25:14;1.57;;;1.10;;
18190;SDS011;47004;51.366;12.348;2023-01-06T10:27:23;2.13;;;0.90;;
18190;SDS011;47004;51.366;12.348;2023-01-06T10:29:28;2.83;;;1.13;;
18190;SDS011;47004;51.366;12.348;2023-01-06T10:31:33;2.17;;;1.20;;
18190;SDS011;47004;51.366;12.348;2023-01-06T10:33:40;2.03;;;1.00;;
18190;SDS011;47004;51.366;12.348;2023-01-06T10:35:45;1.77;;;1.00;;
18190;SDS011;47004;51.366;12.348;2023-01-06T10:37:47;2.93;;;1.10;;
18190;SDS011;47004;51.366;12.348;2023-01-06T10:39:52;1.60;;;0.83;;
18190;SDS011;47004;51.366;12.348;2023-01-06T10:42:03;1.23;;;0.80;;
18190;SDS011;47004;51.366;12.348;2023-01-06T10:44:29;1.47;;;0.90;;
18190;SDS011;47004;51.366;12.348;2023-01-06T10:46:32;1.37;;;0.80;;
18190;SDS011;47004;51.366;12.348;2023-01-06T10:48:35;0.90;;;0.67;;
18190;SDS011;47004;51.366;12.348;2023-01-06T10:50:39;0.70;;;0.70;;
18190;SDS011;47004;51.366;12.348;2023-01-06T10:52:42;1.33;;;0.77;;
18190;SDS011;47004;51.366;12.348;2023-01-06T10:54:45;0.97;;;0.50;;
18190;SDS011;47004;51.366;12.348;2023-01-06T10:56:49;0.80;;;0.63;;
18190;SDS011;47004;51.366;12.348;2023-01-06T10:58:54;0.83;;;0.67;;
18190;SDS011;47004;51.366;12.348;2023-01-06T11:01:06;4.43;;;1.50;;
18190;SDS011;47004;51.366;12.348;2023-01-06T11:03:10;6.50;;;2.10;;
18190;SDS011;47004;51.366;12.348;2023-01-06T11:05:14;6.47;;;2.27;;
18190;SDS011;47004;51.366;12.348;2023-01-06T11:07:17;7.47;;;3.00;;
18190;SDS011;47004;51.366;12.348;2023-01-06T11:09:24;5.53;;;2.20;;
18190;SDS011;47004;51.366;12.348;2023-01-06T11:11:32;13.80;;;5.70;;
18190;SDS011;47004;51.366;12.348;2023-01-06T11:13:45;11.40;;;3.83;;
18190;SDS011;47004;51.366;12.348;2023-01-06T11:15:51;4.63;;;1.80;;
18190;SDS011;47004;51.366;12.348;2023-01-06T11:17:56;8.30;;;2.73;;
18190;SDS011;47004;51.366;12.348;2023-01-06T11:20:05;5.83;;;2.37;;
18190;SDS011;47004;51.366;12.348;2023-01-06T11:24:33;6.17;;;1.27;;
18190;SDS011;47004;51.366;12.348;2023-01-06T11:26:51;1.87;;;0.70;;
18190;SDS011;47004;51.366;12.348;2023-01-06T11:28:54;1.53;;;0.50;;
18190;SDS011;47004;51.366;12.348;2023-01-06T11:30:57;1.10;;;0.77;;
18190;SDS011;47004;51.366;12.348;2023-01-06T11:33:04;1.03;;;0.70;;
18190;SDS011;47004;51.366;12.348;2023-01-06T11:35:15;1.20;;;0.60;;
18190;SDS011;47004;51.366;12.348;2023-01-06T11:37:30;0.93;;;0.70;;
18190;SDS011;47004;51.366;12.348;2023-01-06T11:39:34;0.93;;;0.60;;
18190;SDS011;47004;51.366;12.348;2023-01-06T11:41:37;1.03;;;0.40;;
18190;SDS011;47004;51.366;12.348;2023-01-06T11:43:44;0.50;;;0.50;;
18190;SDS011;47004;51.366;12.348;2023-01-06T11:45:46;0.67;;;0.50;;
18190;SDS011;47004;51.366;12.348;2023-01-06T11:47:53;1.77;;;0.40;;
18190;SDS011;47004;51.366;12.348;2023-01-06T11:49:57;1.23;;;0.50;;
18190;SDS011;47004;51.366;12.348;2023-01-06T11:52:02;0.73;;;0.30;;
18190;SDS011;47004;51.366;12.348;2023-01-06T11:54:15;0.83;;;0.50;;
18190;SDS011;47004;51.366;12.348;2023-01-06T11:56:26;0.97;;;0.40;;
18190;SDS011;47004;51.366;12.348;2023-01-06T11:58:31;1.50;;;0.50;;
18190;SDS011;47004;51.366;12.348;2023-01-06T12:00:40;0.80;;;0.60;;
18190;SDS011;47004;51.366;12.348;2023-01-06T12:02:48;1.90;;;0.70;;
18190;SDS011;47004;51.366;12.348;2023-01-06T12:04:54;2.33;;;0.60;;
18190;SDS011;47004;51.366;12.348;2023-01-06T12:06:59;2.40;;;0.50;;
18190;SDS011;47004;51.366;12.348;2023-01-06T12:09:10;0.90;;;0.40;;
18190;SDS011;47004;51.366;12.348;2023-01-06T12:11:18;1.13;;;0.40;;
18190;SDS011;47004;51.366;12.348;2023-01-06T12:13:25;1.03;;;0.60;;
18190;SDS011;47004;51.366;12.348;2023-01-06T12:15:28;0.70;;;0.50;;
18190;SDS011;47004;51.366;12.348;2023-01-06T12:17:36;0.53;;;0.50;;
18190;SDS011;47004;51.366;12.348;2023-01-06T12:19:43;1.30;;;0.20;;
18190;SDS011;47004;51.366;12.348;2023-01-06T12:21:50;1.63;;;0.60;;
18190;SDS011;47004;51.366;12.348;2023-01-06T12:23:53;0.70;;;0.60;;
18190;SDS011;47004;51.366;12.348;2023-01-06T12:25:59;1.93;;;0.90;;
18190;SDS011;47004;51.366;12.348;2023-01-06T12:28:04;1.70;;;0.50;;
18190;SDS011;47004;51.366;12.348;2023-01-06T12:30:10;2.87;;;0.50;;
18190;SDS011;47004;51.366;12.348;2023-01-06T12:32:18;0.80;;;0.50;;